sensor_id;sensor_type;location;lat;lon;timestamp;P1;durP1;ratioP1;P2;durP2;ratioP2
45760;SDS011;31471;51.040;14.414;2022-12-13T00:01:31;16.05;;;6.95;;
45760;SDS011;31471;51.040;14.414;2022-12-13T00:03:59;14.73;;;6.75;;
45760;SDS011;31471;51.040;14.414;2022-12-13T00:06:26;12.30;;;6.63;;
45760;SDS011;31471;51.040;14.414;2022-12-13T00:08:53;16.90;;;7.22;;
45760;SDS011;31471;51.040;14.414;2022-12-13T00:11:18;14.07;;;6.97;;
45760;SDS011;31471;51.040;14.414;2022-12-13T00:13:44;16.35;;;7.35;;
45760;SDS011;31471;51.040;14.414;2022-12-13T00:16:13;15.35;;;7.25;;
45760;SDS011;31471;51.040;14.414;2022-12-13T00:18:40;14.40;;;6.93;;
45760;SDS011;31471;51.040;14.414;2022-12-13T00:21:08;15.23;;;6.32;;
45760;SDS011;31471;51.040;14.414;2022-12-13T00:23:36;14.50;;;7.10;;
45760;SDS011;31471;51.040;14.414;2022-12-13T00:26:06;13.65;;;6.32;;
45760;SDS011;31471;51.040;14.414;2022-12-13T00:28:34;14.82;;;6.90;;
45760;SDS011;31471;51.040;14.414;2022-12-13T00:31:01;12.98;;;6.93;;
45760;SDS011;31471;51.040;14.414;2022-12-13T00:35:53;12.63;;;5.65;;
45760;SDS011;31471;51.040;14.414;2022-12-13T00:40:44;11.25;;;5.97;;
45760;SDS011;31471;51.040;14.414;2022-12-13T00:43:11;12.60;;;6.80;;
45760;SDS011;31471;51.040;14.414;2022-12-13T00:45:37;13.02;;;6.72;;
45760;SDS011;31471;51.040;14.414;2022-12-13T00:48:04;15.88;;;6.60;;
45760;SDS011;31471;51.040;14.414;2022-12-13T00:50:30;14.75;;;6.25;;
45760;SDS011;31471;51.040;14.414;2022-12-13T00:52:57;15.70;;;6.55;;
45760;SDS011;31471;51.040;14.414;2022-12-13T00:55:24;13.73;;;6.43;;
45760;SDS011;31471;51.040;14.414;2022-12-13T00:57:50;13.10;;;6.47;;
45760;SDS011;31471;51.040;14.414;2022-12-13T01:00:16;12.75;;;6.00;;
45760;SDS011;31471;51.040;14.414;2022-12-13T01:02:41;10.20;;;6.38;;
45760;SDS011;31471;51.040;14.414;2022-12-13T01:05:08;12.55;;;5.90;;
45760;SDS011;31471;51.040;14.414;2022-12-13T01:07:35;11.57;;;5.82;;
45760;SDS011;31471;51.040;14.414;2022-12-13T01:10:01;11.32;;;6.13;;
45760;SDS011;31471;51.040;14.414;2022-12-13T01:12:28;11.48;;;5.65;;
45760;SDS011;31471;51.040;14.414;2022-12-13T01:14:54;12.35;;;6.00;;
45760;SDS011;31471;51.040;14.414;2022-12-13T01:17:20;16.20;;;6.68;;
45760;SDS011;31471;51.040;14.414;2022-12-13T01:19:45;11.75;;;5.78;;
45760;SDS011;31471;51.040;14.414;2022-12-13T01:22:11;10.60;;;5.38;;
45760;SDS011;31471;51.040;14.414;2022-12-13T01:24:36;15.43;;;6.90;;
45760;SDS011;31471;51.040;14.414;2022-12-13T01:27:02;13.23;;;6.70;;
45760;SDS011;31471;51.040;14.414;2022-12-13T01:29:28;15.25;;;6.63;;
45760;SDS011;31471;51.040;14.414;2022-12-13T01:31:54;11.40;;;6.20;;
45760;SDS011;31471;51.040;14.414;2022-12-13T01:34:20;16.20;;;7.05;;
45760;SDS011;31471;51.040;14.414;2022-12-13T01:36:47;17.33;;;6.65;;
45760;SDS011;31471;51.040;14.414;2022-12-13T01:41:39;9.68;;;4.38;;
45760;SDS011;31471;51.040;14.414;2022-12-13T01:44:06;13.18;;;5.53;;
45760;SDS011;31471;51.040;14.414;2022-12-13T01:46:50;9.00;;;5.53;;
45760;SDS011;31471;51.040;14.414;2022-12-13T01:49:16;12.10;;;6.07;;
45760;SDS011;31471;51.040;14.414;2022-12-13T01:51:45;12.57;;;6.25;;
45760;SDS011;31471;51.040;14.414;2022-12-13T01:54:19;14.85;;;5.88;;
45760;SDS011;31471;51.040;14.414;2022-12-13T01:56:49;14.73;;;6.45;;
45760;SDS011;31471;51.040;14.414;2022-12-13T01:59:18;14.38;;;6.30;;
45760;SDS011;31471;51.040;14.414;2022-12-13T02:01:45;16.80;;;6.38;;
45760;SDS011;31471;51.040;14.414;2022-12-13T02:04:13;16.00;;;6.68;;
45760;SDS011;31471;51.040;14.414;2022-12-13T02:06:55;13.98;;;6.15;;
45760;SDS011;31471;51.040;14.414;2022-12-13T02:11:47;14.23;;;6.78;;
45760;SDS011;31471;51.040;14.414;2022-12-13T02:14:15;10.05;;;5.65;;
45760;SDS011;31471;51.040;14.414;2022-12-13T02:16:59;14.68;;;6.53;;
45760;SDS011;31471;51.040;14.414;2022-12-13T02:19:46;11.88;;;5.63;;
45760;SDS011;31471;51.040;14.414;2022-12-13T02:22:50;14.38;;;6.25;;
45760;SDS011;31471;51.040;14.414;2022-12-13T02:31:05;13.13;;;6.18;;
45760;SDS011;31471;51.040;14.414;2022-12-13T02:33:44;11.10;;;5.78;;
45760;SDS011;31471;51.040;14.414;2022-12-13T02:36:40;12.43;;;5.95;;
45760;SDS011;31471;51.040;14.414;2022-12-13T02:39:21;12.90;;;6.38;;
45760;SDS011;31471;51.040;14.414;2022-12-13T02:41:53;13.52;;;6.32;;
45760;SDS011;31471;51.040;14.414;2022-12-13T02:44:46;19.45;;;7.47;;
45760;SDS011;31471;51.040;14.414;2022-12-13T02:47:21;15.38;;;6.50;;
45760;SDS011;31471;51.040;14.414;2022-12-13T02:49:49;15.93;;;6.38;;
45760;SDS011;31471;51.040;14.414;2022-12-13T02:52:19;16.27;;;7.45;;
45760;SDS011;31471;51.040;14.414;2022-12-13T02:54:47;17.10;;;8.00;;
45760;SDS011;31471;51.040;14.414;2022-12-13T03:00:06;13.20;;;5.85;;
45760;SDS011;31471;51.040;14.414;2022-12-13T03:11:03;13.75;;;6.38;;
45760;SDS011;31471;51.040;14.414;2022-12-13T03:13:35;15.35;;;6.75;;
45760;SDS011;31471;51.040;14.414;2022-12-13T03:18:30;13.63;;;6.57;;
45760;SDS011;31471;51.040;14.414;2022-12-13T03:20:59;15.30;;;6.35;;
45760;SDS011;31471;51.040;14.414;2022-12-13T03:23:28;14.02;;;6.28;;
45760;SDS011;31471;51.040;14.414;2022-12-13T03:25:55;10.63;;;5.65;;
45760;SDS011;31471;51.040;14.414;2022-12-13T03:28:25;14.65;;;6.57;;
45760;SDS011;31471;51.040;14.414;2022-12-13T03:30:51;16.63;;;7.07;;
45760;SDS011;31471;51.040;14.414;2022-12-13T03:33:17;14.45;;;7.03;;
45760;SDS011;31471;51.040;14.414;2022-12-13T03:35:42;16.10;;;7.15;;
45760;SDS011;31471;51.040;14.414;2022-12-13T03:40:34;15.25;;;7.05;;
45760;SDS011;31471;51.040;14.414;2022-12-13T03:43:00;12.13;;;6.50;;
45760;SDS011;31471;51.040;14.414;2022-12-13T03:45:26;12.60;;;6.43;;
45760;SDS011;31471;51.040;14.414;2022-12-13T03:47:52;15.35;;;7.78;;
45760;SDS011;31471;51.040;14.414;2022-12-13T03:50:18;13.70;;;7.07;;
45760;SDS011;31471;51.040;14.414;2022-12-13T03:52:43;15.80;;;7.40;;
45760;SDS011;31471;51.040;14.414;2022-12-13T03:55:11;12.65;;;6.60;;
45760;SDS011;31471;51.040;14.414;2022-12-13T03:57:37;13.70;;;7.07;;
45760;SDS011;31471;51.040;14.414;2022-12-13T04:00:04;14.35;;;6.05;;
45760;SDS011;31471;51.040;14.414;2022-12-13T04:02:37;14.98;;;7.38;;
45760;SDS011;31471;51.040;14.414;2022-12-13T04:05:03;15.55;;;6.72;;
45760;SDS011;31471;51.040;14.414;2022-12-13T04:07:28;11.18;;;5.63;;
45760;SDS011;31471;51.040;14.414;2022-12-13T04:09:54;11.27;;;6.20;;
45760;SDS011;31471;51.040;14.414;2022-12-13T04:12:20;17.42;;;7.63;;
45760;SDS011;31471;51.040;14.414;2022-12-13T04:15:04;16.95;;;8.25;;
45760;SDS011;31471;51.040;14.414;2022-12-13T04:17:30;17.65;;;7.28;;
45760;SDS011;31471;51.040;14.414;2022-12-13T04:19:56;15.05;;;6.63;;
45760;SDS011;31471;51.040;14.414;2022-12-13T04:22:21;15.07;;;6.82;;
45760;SDS011;31471;51.040;14.414;2022-12-13T04:24:47;18.00;;;7.45;;
45760;SDS011;31471;51.040;14.414;2022-12-13T04:27:13;13.80;;;6.25;;
45760;SDS011;31471;51.040;14.414;2022-12-13T04:29:38;12.40;;;6.03;;
45760;SDS011;31471;51.040;14.414;2022-12-13T04:32:04;13.00;;;6.22;;
45760;SDS011;31471;51.040;14.414;2022-12-13T04:34:30;12.65;;;6.38;;
45760;SDS011;31471;51.040;14.414;2022-12-13T04:36:55;10.02;;;5.95;;
45760;SDS011;31471;51.040;14.414;2022-12-13T04:39:21;13.48;;;6.15;;
45760;SDS011;31471;51.040;14.414;2022-12-13T04:41:51;14.63;;;6.10;;
45760;SDS011;31471;51.040;14.414;2022-12-13T04:44:17;12.70;;;6.57;;
45760;SDS011;31471;51.040;14.414;2022-12-13T04:46:43;12.00;;;6.05;;
45760;SDS011;31471;51.040;14.414;2022-12-13T04:49:08;14.73;;;5.97;;
45760;SDS011;31471;51.040;14.414;2022-12-13T04:51:34;15.00;;;6.35;;
45760;SDS011;31471;51.040;14.414;2022-12-13T04:53:59;13.13;;;6.80;;
45760;SDS011;31471;51.040;14.414;2022-12-13T04:56:25;13.25;;;6.72;;
45760;SDS011;31471;51.040;14.414;2022-12-13T04:58:51;11.05;;;5.95;;
45760;SDS011;31471;51.040;14.414;2022-12-13T05:01:16;12.05;;;5.82;;
45760;SDS011;31471;51.040;14.414;2022-12-13T05:03:42;8.70;;;5.03;;
45760;SDS011;31471;51.040;14.414;2022-12-13T05:06:08;12.75;;;6.03;;
45760;SDS011;31471;51.040;14.414;2022-12-13T05:08:36;12.73;;;6.35;;
45760;SDS011;31471;51.040;14.414;2022-12-13T05:11:04;11.18;;;5.72;;
45760;SDS011;31471;51.040;14.414;2022-12-13T05:13:31;9.70;;;5.57;;
45760;SDS011;31471;51.040;14.414;2022-12-13T05:18:25;9.20;;;5.20;;
45760;SDS011;31471;51.040;14.414;2022-12-13T05:20:50;11.73;;;5.78;;
45760;SDS011;31471;51.040;14.414;2022-12-13T05:23:17;9.50;;;5.32;;
45760;SDS011;31471;51.040;14.414;2022-12-13T05:25:43;11.77;;;6.38;;
45760;SDS011;31471;51.040;14.414;2022-12-13T05:28:08;11.13;;;5.43;;
45760;SDS011;31471;51.040;14.414;2022-12-13T05:30:36;15.48;;;6.53;;
45760;SDS011;31471;51.040;14.414;2022-12-13T05:33:02;13.02;;;6.45;;
45760;SDS011;31471;51.040;14.414;2022-12-13T05:35:28;13.45;;;5.93;;
45760;SDS011;31471;51.040;14.414;2022-12-13T05:37:54;7.78;;;4.90;;
45760;SDS011;31471;51.040;14.414;2022-12-13T05:40:20;9.98;;;5.15;;
45760;SDS011;31471;51.040;14.414;2022-12-13T05:42:46;11.00;;;5.28;;
45760;SDS011;31471;51.040;14.414;2022-12-13T05:45:12;13.57;;;7.15;;
45760;SDS011;31471;51.040;14.414;2022-12-13T05:47:39;21.50;;;9.43;;
45760;SDS011;31471;51.040;14.414;2022-12-13T05:50:05;19.77;;;9.45;;
45760;SDS011;31471;51.040;14.414;2022-12-13T05:52:31;19.05;;;8.85;;
45760;SDS011;31471;51.040;14.414;2022-12-13T05:54:56;16.33;;;7.93;;
45760;SDS011;31471;51.040;14.414;2022-12-13T05:57:22;9.88;;;4.82;;
45760;SDS011;31471;51.040;14.414;2022-12-13T05:59:48;8.88;;;5.47;;
45760;SDS011;31471;51.040;14.414;2022-12-13T06:02:14;10.50;;;5.28;;
45760;SDS011;31471;51.040;14.414;2022-12-13T06:04:41;12.57;;;5.45;;
45760;SDS011;31471;51.040;14.414;2022-12-13T06:07:07;9.85;;;5.15;;
45760;SDS011;31471;51.040;14.414;2022-12-13T06:09:33;15.93;;;6.10;;
45760;SDS011;31471;51.040;14.414;2022-12-13T06:11:58;12.63;;;5.85;;
45760;SDS011;31471;51.040;14.414;2022-12-13T06:14:24;12.02;;;6.47;;
45760;SDS011;31471;51.040;14.414;2022-12-13T06:16:52;12.48;;;6.18;;
45760;SDS011;31471;51.040;14.414;2022-12-13T06:19:19;12.07;;;6.57;;
45760;SDS011;31471;51.040;14.414;2022-12-13T06:21:45;15.05;;;6.88;;
45760;SDS011;31471;51.040;14.414;2022-12-13T06:24:15;11.70;;;4.97;;
45760;SDS011;31471;51.040;14.414;2022-12-13T06:26:42;10.50;;;5.32;;
45760;SDS011;31471;51.040;14.414;2022-12-13T06:29:07;9.93;;;4.05;;
45760;SDS011;31471;51.040;14.414;2022-12-13T06:31:34;9.02;;;4.88;;
45760;SDS011;31471;51.040;14.414;2022-12-13T06:34:03;8.77;;;4.35;;
45760;SDS011;31471;51.040;14.414;2022-12-13T06:36:29;6.13;;;3.60;;
45760;SDS011;31471;51.040;14.414;2022-12-13T06:38:54;11.10;;;4.68;;
45760;SDS011;31471;51.040;14.414;2022-12-13T06:41:20;7.80;;;4.05;;
45760;SDS011;31471;51.040;14.414;2022-12-13T06:43:46;7.30;;;3.88;;
45760;SDS011;31471;51.040;14.414;2022-12-13T06:46:12;7.10;;;4.03;;
45760;SDS011;31471;51.040;14.414;2022-12-13T06:48:40;7.65;;;4.07;;
45760;SDS011;31471;51.040;14.414;2022-12-13T06:51:06;7.95;;;4.00;;
45760;SDS011;31471;51.040;14.414;2022-12-13T06:53:33;7.20;;;3.75;;
45760;SDS011;31471;51.040;14.414;2022-12-13T06:56:05;8.10;;;4.03;;
45760;SDS011;31471;51.040;14.414;2022-12-13T06:58:33;8.30;;;4.28;;
45760;SDS011;31471;51.040;14.414;2022-12-13T07:01:09;6.82;;;3.65;;
45760;SDS011;31471;51.040;14.414;2022-12-13T07:03:40;5.18;;;3.00;;
45760;SDS011;31471;51.040;14.414;2022-12-13T07:06:08;5.35;;;3.10;;
45760;SDS011;31471;51.040;14.414;2022-12-13T07:11:15;6.65;;;3.10;;
45760;SDS011;31471;51.040;14.414;2022-12-13T07:13:43;8.10;;;3.72;;
45760;SDS011;31471;51.040;14.414;2022-12-13T07:16:09;7.95;;;3.78;;
45760;SDS011;31471;51.040;14.414;2022-12-13T07:18:36;7.13;;;4.03;;
45760;SDS011;31471;51.040;14.414;2022-12-13T07:21:05;9.57;;;4.00;;
45760;SDS011;31471;51.040;14.414;2022-12-13T07:23:33;9.13;;;4.03;;
45760;SDS011;31471;51.040;14.414;2022-12-13T07:25:59;7.35;;;3.90;;
45760;SDS011;31471;51.040;14.414;2022-12-13T07:28:24;8.05;;;4.13;;
45760;SDS011;31471;51.040;14.414;2022-12-13T07:30:50;8.40;;;4.35;;
45760;SDS011;31471;51.040;14.414;2022-12-13T07:33:16;8.07;;;4.13;;
45760;SDS011;31471;51.040;14.414;2022-12-13T07:35:43;6.93;;;3.83;;
45760;SDS011;31471;51.040;14.414;2022-12-13T07:38:09;5.85;;;3.60;;
45760;SDS011;31471;51.040;14.414;2022-12-13T07:40:36;10.15;;;5.13;;
45760;SDS011;31471;51.040;14.414;2022-12-13T07:43:02;12.10;;;5.93;;
45760;SDS011;31471;51.040;14.414;2022-12-13T07:47:54;6.40;;;3.35;;
45760;SDS011;31471;51.040;14.414;2022-12-13T07:50:20;7.45;;;4.28;;
45760;SDS011;31471;51.040;14.414;2022-12-13T07:55:12;7.90;;;3.70;;
45760;SDS011;31471;51.040;14.414;2022-12-13T07:57:38;5.40;;;2.92;;
45760;SDS011;31471;51.040;14.414;2022-12-13T08:00:03;4.65;;;3.78;;
45760;SDS011;31471;51.040;14.414;2022-12-13T08:02:38;6.22;;;3.88;;
45760;SDS011;31471;51.040;14.414;2022-12-13T08:05:05;12.98;;;4.68;;
45760;SDS011;31471;51.040;14.414;2022-12-13T08:07:30;16.88;;;6.10;;
45760;SDS011;31471;51.040;14.414;2022-12-13T08:09:56;13.68;;;5.75;;
45760;SDS011;31471;51.040;14.414;2022-12-13T08:12:22;14.68;;;6.25;;
45760;SDS011;31471;51.040;14.414;2022-12-13T08:14:47;13.90;;;6.30;;
45760;SDS011;31471;51.040;14.414;2022-12-13T08:17:13;13.75;;;6.13;;
45760;SDS011;31471;51.040;14.414;2022-12-13T08:19:39;9.38;;;5.50;;
45760;SDS011;31471;51.040;14.414;2022-12-13T08:22:04;9.07;;;5.43;;
45760;SDS011;31471;51.040;14.414;2022-12-13T08:26:57;5.93;;;2.95;;
45760;SDS011;31471;51.040;14.414;2022-12-13T08:29:26;6.03;;;2.97;;
45760;SDS011;31471;51.040;14.414;2022-12-13T08:31:53;5.03;;;3.20;;
45760;SDS011;31471;51.040;14.414;2022-12-13T08:34:18;4.32;;;3.10;;
45760;SDS011;31471;51.040;14.414;2022-12-13T08:36:44;15.27;;;6.78;;
45760;SDS011;31471;51.040;14.414;2022-12-13T08:39:09;113.35;;;39.13;;
45760;SDS011;31471;51.040;14.414;2022-12-13T08:41:35;21.42;;;8.60;;
45760;SDS011;31471;51.040;14.414;2022-12-13T08:44:00;23.42;;;7.68;;
45760;SDS011;31471;51.040;14.414;2022-12-13T08:46:26;10.20;;;4.47;;
45760;SDS011;31471;51.040;14.414;2022-12-13T08:48:52;14.55;;;6.63;;
45760;SDS011;31471;51.040;14.414;2022-12-13T08:51:18;21.40;;;10.05;;
45760;SDS011;31471;51.040;14.414;2022-12-13T08:53:48;10.98;;;5.78;;
45760;SDS011;31471;51.040;14.414;2022-12-13T08:56:14;14.90;;;8.93;;
45760;SDS011;31471;51.040;14.414;2022-12-13T08:58:40;19.20;;;12.00;;
45760;SDS011;31471;51.040;14.414;2022-12-13T09:01:06;14.55;;;7.55;;
45760;SDS011;31471;51.040;14.414;2022-12-13T09:03:33;8.40;;;4.38;;
45760;SDS011;31471;51.040;14.414;2022-12-13T09:06:06;9.68;;;5.43;;
45760;SDS011;31471;51.040;14.414;2022-12-13T09:08:40;6.63;;;3.92;;
45760;SDS011;31471;51.040;14.414;2022-12-13T09:11:07;4.55;;;2.55;;
45760;SDS011;31471;51.040;14.414;2022-12-13T09:13:34;6.90;;;3.55;;
45760;SDS011;31471;51.040;14.414;2022-12-13T09:16:23;6.38;;;2.92;;
45760;SDS011;31471;51.040;14.414;2022-12-13T09:18:48;6.63;;;3.65;;
45760;SDS011;31471;51.040;14.414;2022-12-13T09:21:17;5.63;;;3.33;;
45760;SDS011;31471;51.040;14.414;2022-12-13T09:23:42;7.78;;;4.35;;
45760;SDS011;31471;51.040;14.414;2022-12-13T09:26:12;7.60;;;3.55;;
45760;SDS011;31471;51.040;14.414;2022-12-13T09:28:39;6.68;;;3.67;;
45760;SDS011;31471;51.040;14.414;2022-12-13T09:31:06;10.50;;;4.20;;
45760;SDS011;31471;51.040;14.414;2022-12-13T09:33:32;5.47;;;3.00;;
45760;SDS011;31471;51.040;14.414;2022-12-13T09:35:58;4.78;;;2.83;;
45760;SDS011;31471;51.040;14.414;2022-12-13T09:38:23;8.70;;;4.00;;
45760;SDS011;31471;51.040;14.414;2022-12-13T09:40:49;7.65;;;3.60;;
45760;SDS011;31471;51.040;14.414;2022-12-13T09:43:20;6.30;;;3.10;;
45760;SDS011;31471;51.040;14.414;2022-12-13T09:45:49;7.43;;;3.60;;
45760;SDS011;31471;51.040;14.414;2022-12-13T09:48:16;8.43;;;3.58;;
45760;SDS011;31471;51.040;14.414;2022-12-13T09:50:43;7.00;;;4.03;;
45760;SDS011;31471;51.040;14.414;2022-12-13T09:53:10;7.43;;;3.95;;
45760;SDS011;31471;51.040;14.414;2022-12-13T09:55:38;11.60;;;4.90;;
45760;SDS011;31471;51.040;14.414;2022-12-13T09:58:19;6.10;;;4.22;;
45760;SDS011;31471;51.040;14.414;2022-12-13T10:00:48;7.18;;;3.97;;
45760;SDS011;31471;51.040;14.414;2022-12-13T10:03:17;6.72;;;3.92;;
45760;SDS011;31471;51.040;14.414;2022-12-13T10:05:47;8.43;;;4.07;;
45760;SDS011;31471;51.040;14.414;2022-12-13T10:08:21;7.53;;;3.63;;
45760;SDS011;31471;51.040;14.414;2022-12-13T10:10:49;8.00;;;4.35;;
45760;SDS011;31471;51.040;14.414;2022-12-13T10:13:28;6.95;;;3.72;;
45760;SDS011;31471;51.040;14.414;2022-12-13T10:16:07;6.70;;;3.28;;
45760;SDS011;31471;51.040;14.414;2022-12-13T10:18:39;7.85;;;4.32;;
45760;SDS011;31471;51.040;14.414;2022-12-13T10:21:10;7.57;;;3.85;;
45760;SDS011;31471;51.040;14.414;2022-12-13T10:23:39;6.88;;;3.85;;
45760;SDS011;31471;51.040;14.414;2022-12-13T10:26:09;8.85;;;4.30;;
45760;SDS011;31471;51.040;14.414;2022-12-13T10:28:37;9.20;;;4.72;;
45760;SDS011;31471;51.040;14.414;2022-12-13T10:31:04;8.43;;;4.05;;
45760;SDS011;31471;51.040;14.414;2022-12-13T10:33:31;9.80;;;4.60;;
45760;SDS011;31471;51.040;14.414;2022-12-13T10:36:04;9.13;;;4.60;;
45760;SDS011;31471;51.040;14.414;2022-12-13T10:38:52;10.35;;;4.95;;
45760;SDS011;31471;51.040;14.414;2022-12-13T10:41:25;7.68;;;4.15;;
45760;SDS011;31471;51.040;14.414;2022-12-13T10:44:08;9.10;;;4.50;;
45760;SDS011;31471;51.040;14.414;2022-12-13T10:46:48;6.35;;;4.28;;
45760;SDS011;31471;51.040;14.414;2022-12-13T10:49:18;9.68;;;5.47;;
45760;SDS011;31471;51.040;14.414;2022-12-13T10:51:46;7.38;;;4.10;;
45760;SDS011;31471;51.040;14.414;2022-12-13T10:54:16;6.68;;;3.78;;
45760;SDS011;31471;51.040;14.414;2022-12-13T10:56:48;9.68;;;3.75;;
45760;SDS011;31471;51.040;14.414;2022-12-13T10:59:30;6.13;;;3.42;;
45760;SDS011;31471;51.040;14.414;2022-12-13T11:02:01;7.57;;;3.45;;
45760;SDS011;31471;51.040;14.414;2022-12-13T11:05:23;5.80;;;3.58;;
45760;SDS011;31471;51.040;14.414;2022-12-13T11:07:50;9.15;;;3.97;;
45760;SDS011;31471;51.040;14.414;2022-12-13T11:10:20;7.65;;;4.07;;
45760;SDS011;31471;51.040;14.414;2022-12-13T11:12:52;6.78;;;4.28;;
45760;SDS011;31471;51.040;14.414;2022-12-13T11:15:25;7.22;;;4.45;;
45760;SDS011;31471;51.040;14.414;2022-12-13T11:18:00;7.60;;;3.85;;
45760;SDS011;31471;51.040;14.414;2022-12-13T11:20:35;7.38;;;4.60;;
45760;SDS011;31471;51.040;14.414;2022-12-13T11:25:47;9.20;;;4.55;;
45760;SDS011;31471;51.040;14.414;2022-12-13T11:28:26;6.90;;;3.30;;
45760;SDS011;31471;51.040;14.414;2022-12-13T11:33:45;7.82;;;4.25;;
45760;SDS011;31471;51.040;14.414;2022-12-13T11:36:49;9.60;;;6.13;;
45760;SDS011;31471;51.040;14.414;2022-12-13T11:39:39;11.82;;;5.35;;
45760;SDS011;31471;51.040;14.414;2022-12-13T11:44:59;7.38;;;4.03;;
45760;SDS011;31471;51.040;14.414;2022-12-13T11:47:37;8.15;;;4.05;;
45760;SDS011;31471;51.040;14.414;2022-12-13T11:50:16;7.95;;;4.75;;
45760;SDS011;31471;51.040;14.414;2022-12-13T11:55:55;8.85;;;4.57;;
45760;SDS011;31471;51.040;14.414;2022-12-13T11:58:42;7.70;;;4.00;;
45760;SDS011;31471;51.040;14.414;2022-12-13T12:01:23;8.18;;;4.63;;
45760;SDS011;31471;51.040;14.414;2022-12-13T12:03:57;8.80;;;4.25;;
45760;SDS011;31471;51.040;14.414;2022-12-13T12:09:41;7.00;;;5.20;;
45760;SDS011;31471;51.040;14.414;2022-12-13T12:14:53;8.82;;;4.95;;
45760;SDS011;31471;51.040;14.414;2022-12-13T12:17:24;8.25;;;4.03;;
45760;SDS011;31471;51.040;14.414;2022-12-13T12:19:51;11.70;;;5.05;;
45760;SDS011;31471;51.040;14.414;2022-12-13T12:22:25;7.88;;;4.70;;
45760;SDS011;31471;51.040;14.414;2022-12-13T12:25:21;10.85;;;5.32;;
45760;SDS011;31471;51.040;14.414;2022-12-13T12:27:55;12.80;;;6.72;;
45760;SDS011;31471;51.040;14.414;2022-12-13T12:30:42;12.82;;;5.45;;
45760;SDS011;31471;51.040;14.414;2022-12-13T12:55:26;12.32;;;5.20;;
45760;SDS011;31471;51.040;14.414;2022-12-13T12:58:22;9.07;;;5.13;;
45760;SDS011;31471;51.040;14.414;2022-12-13T13:03:41;10.80;;;4.40;;
45760;SDS011;31471;51.040;14.414;2022-12-13T13:08:48;8.98;;;4.97;;
45760;SDS011;31471;51.040;14.414;2022-12-13T13:11:21;10.45;;;5.40;;
45760;SDS011;31471;51.040;14.414;2022-12-13T13:14:07;10.18;;;5.18;;
45760;SDS011;31471;51.040;14.414;2022-12-13T13:16:51;9.65;;;4.82;;
45760;SDS011;31471;51.040;14.414;2022-12-13T13:21:49;13.07;;;6.75;;
45760;SDS011;31471;51.040;14.414;2022-12-13T13:26:53;9.90;;;4.63;;
45760;SDS011;31471;51.040;14.414;2022-12-13T13:32:00;15.20;;;6.47;;
45760;SDS011;31471;51.040;14.414;2022-12-13T13:34:35;15.75;;;6.80;;
45760;SDS011;31471;51.040;14.414;2022-12-13T13:42:18;13.90;;;7.15;;
45760;SDS011;31471;51.040;14.414;2022-12-13T13:52:36;13.02;;;5.75;;
45760;SDS011;31471;51.040;14.414;2022-12-13T13:58:30;17.13;;;7.82;;
45760;SDS011;31471;51.040;14.414;2022-12-13T14:01:18;20.23;;;9.10;;
45760;SDS011;31471;51.040;14.414;2022-12-13T14:13:41;14.88;;;7.93;;
45760;SDS011;31471;51.040;14.414;2022-12-13T14:19:20;22.90;;;10.45;;
45760;SDS011;31471;51.040;14.414;2022-12-13T14:27:35;18.45;;;9.15;;
45760;SDS011;31471;51.040;14.414;2022-12-13T14:30:15;20.40;;;8.45;;
45760;SDS011;31471;51.040;14.414;2022-12-13T14:32:52;28.73;;;11.27;;
45760;SDS011;31471;51.040;14.414;2022-12-13T14:35:28;22.27;;;10.05;;
45760;SDS011;31471;51.040;14.414;2022-12-13T14:38:00;25.90;;;11.07;;
45760;SDS011;31471;51.040;14.414;2022-12-13T14:42:56;20.10;;;9.90;;
45760;SDS011;31471;51.040;14.414;2022-12-13T14:47:53;19.40;;;8.15;;
45760;SDS011;31471;51.040;14.414;2022-12-13T14:50:27;19.05;;;8.57;;
45760;SDS011;31471;51.040;14.414;2022-12-13T14:52:56;26.30;;;11.18;;
45760;SDS011;31471;51.040;14.414;2022-12-13T14:55:35;20.88;;;9.80;;
45760;SDS011;31471;51.040;14.414;2022-12-13T14:58:02;22.25;;;8.85;;
45760;SDS011;31471;51.040;14.414;2022-12-13T15:00:39;17.73;;;7.88;;
45760;SDS011;31471;51.040;14.414;2022-12-13T15:03:06;19.13;;;9.05;;
45760;SDS011;31471;51.040;14.414;2022-12-13T15:08:09;18.42;;;9.13;;
45760;SDS011;31471;51.040;14.414;2022-12-13T15:10:43;21.65;;;10.15;;
45760;SDS011;31471;51.040;14.414;2022-12-13T15:13:24;19.65;;;9.90;;
45760;SDS011;31471;51.040;14.414;2022-12-13T15:16:09;20.25;;;10.70;;
45760;SDS011;31471;51.040;14.414;2022-12-13T15:18:46;17.00;;;10.63;;
45760;SDS011;31471;51.040;14.414;2022-12-13T15:21:32;18.85;;;10.02;;
45760;SDS011;31471;51.040;14.414;2022-12-13T15:24:02;22.73;;;11.35;;
45760;SDS011;31471;51.040;14.414;2022-12-13T15:26:35;19.25;;;11.40;;
45760;SDS011;31471;51.040;14.414;2022-12-13T15:31:32;24.00;;;12.77;;
45760;SDS011;31471;51.040;14.414;2022-12-13T15:34:20;38.83;;;17.13;;
45760;SDS011;31471;51.040;14.414;2022-12-13T15:36:45;43.20;;;21.08;;
45760;SDS011;31471;51.040;14.414;2022-12-13T15:41:40;34.78;;;14.40;;
45760;SDS011;31471;51.040;14.414;2022-12-13T15:44:19;27.92;;;14.68;;
45760;SDS011;31471;51.040;14.414;2022-12-13T15:46:47;31.73;;;15.88;;
45760;SDS011;31471;51.040;14.414;2022-12-13T15:49:30;34.45;;;16.40;;
45760;SDS011;31471;51.040;14.414;2022-12-13T15:52:00;29.48;;;14.18;;
45760;SDS011;31471;51.040;14.414;2022-12-13T15:54:28;30.90;;;14.82;;
45760;SDS011;31471;51.040;14.414;2022-12-13T15:59:33;36.03;;;15.77;;
45760;SDS011;31471;51.040;14.414;2022-12-13T16:01:59;61.88;;;23.05;;
45760;SDS011;31471;51.040;14.414;2022-12-13T16:04:27;42.97;;;17.90;;
45760;SDS011;31471;51.040;14.414;2022-12-13T16:06:54;46.20;;;20.23;;
45760;SDS011;31471;51.040;14.414;2022-12-13T16:09:21;39.58;;;18.58;;
45760;SDS011;31471;51.040;14.414;2022-12-13T16:11:51;30.42;;;16.30;;
45760;SDS011;31471;51.040;14.414;2022-12-13T16:16:54;31.88;;;15.80;;
45760;SDS011;31471;51.040;14.414;2022-12-13T16:19:30;43.13;;;18.13;;
45760;SDS011;31471;51.040;14.414;2022-12-13T16:21:56;46.17;;;20.17;;
45760;SDS011;31471;51.040;14.414;2022-12-13T16:26:48;50.58;;;21.48;;
45760;SDS011;31471;51.040;14.414;2022-12-13T16:31:41;42.47;;;18.35;;
45760;SDS011;31471;51.040;14.414;2022-12-13T16:34:10;39.15;;;16.95;;
45760;SDS011;31471;51.040;14.414;2022-12-13T16:36:36;39.90;;;17.60;;
45760;SDS011;31471;51.040;14.414;2022-12-13T16:39:03;40.63;;;16.75;;
45760;SDS011;31471;51.040;14.414;2022-12-13T16:41:30;32.08;;;15.50;;
45760;SDS011;31471;51.040;14.414;2022-12-13T16:44:00;39.00;;;17.17;;
45760;SDS011;31471;51.040;14.414;2022-12-13T16:46:27;35.65;;;17.45;;
45760;SDS011;31471;51.040;14.414;2022-12-13T16:48:54;35.70;;;15.95;;
45760;SDS011;31471;51.040;14.414;2022-12-13T16:53:45;32.30;;;14.40;;
45760;SDS011;31471;51.040;14.414;2022-12-13T16:56:12;34.70;;;15.77;;
45760;SDS011;31471;51.040;14.414;2022-12-13T16:58:38;37.47;;;16.55;;
45760;SDS011;31471;51.040;14.414;2022-12-13T17:03:34;30.35;;;12.93;;
45760;SDS011;31471;51.040;14.414;2022-12-13T17:06:00;28.65;;;12.65;;
45760;SDS011;31471;51.040;14.414;2022-12-13T17:10:52;32.17;;;14.10;;
45760;SDS011;31471;51.040;14.414;2022-12-13T17:15:43;25.35;;;11.02;;
45760;SDS011;31471;51.040;14.414;2022-12-13T17:20:34;28.80;;;13.23;;
45760;SDS011;31471;51.040;14.414;2022-12-13T17:23:00;33.80;;;13.98;;
45760;SDS011;31471;51.040;14.414;2022-12-13T17:25:26;28.40;;;14.02;;